Time;durP1;ratioP1;P1;durP2;ratioP2;P2;SDS_P1;SDS_P2;PMS_P1;PMS_P2;Temp;Humidity;BMP_temperature;BMP_pressure;BME280_temperature;BME280_humidity;BME280_pressure;Samples;Min_cycle;Max_cycle;Signal;HPM_P1;HPM_P2
2024/03/30 00:01:03;;;;;;;0.93;0.30;;;12.40;89.30;;;;;;5013919;28;20026;-82
2024/03/30 00:03:28;;;;;;;1.85;0.50;;;12.40;89.20;;;;;;5013913;28;20024;-84
2024/03/30 00:06:01;;;;;;;1.40;0.40;;;12.30;89.40;;;;;;5013709;28;20083;-84
2024/03/30 00:08:28;;;;;;;1.20;0.40;;;12.30;89.40;;;;;;5028781;28;20030;-84
2024/03/30 00:11:04;;;;;;;1.60;0.50;;;12.30;89.30;;;;;;5013581;28;20030;-86
2024/03/30 00:13:30;;;;;;;1.38;0.30;;;12.30;89.30;;;;;;5013811;28;20041;-84
2024/03/30 00:15:56;;;;;;;1.08;0.40;;;12.30;89.40;;;;;;5013913;28;20017;-84
2024/03/30 00:18:22;;;;;;;0.68;0.30;;;12.30;89.40;;;;;;5029366;28;20064;-84
2024/03/30 00:20:48;;;;;;;3.65;0.38;;;12.30;89.40;;;;;;5029270;28;20026;-84
2024/03/30 00:23:13;;;;;;;0.98;0.35;;;12.20;89.60;;;;;;5013726;28;20014;-85
2024/03/30 00:25:52;;;;;;;2.47;0.40;;;12.20;89.70;;;;;;5013706;28;20053;-85
2024/03/30 00:28:18;;;;;;;2.20;0.30;;;12.20;89.70;;;;;;5013643;28;20049;-84
2024/03/30 00:30:45;;;;;;;1.00;0.38;;;12.20;89.80;;;;;;5014088;28;20066;-85
2024/03/30 00:33:14;;;;;;;0.20;0.20;;;12.20;89.70;;;;;;5013331;28;20438;-85
2024/03/30 00:35:40;;;;;;;0.70;0.30;;;12.20;89.70;;;;;;5013442;28;20435;-85
2024/03/30 00:38:07;;;;;;;2.05;0.35;;;12.20;89.70;;;;;;5013408;28;20072;-84
2024/03/30 00:40:36;;;;;;;0.50;0.20;;;12.20;89.60;;;;;;5028567;28;20044;-85
2024/03/30 00:43:03;;;;;;;0.40;0.20;;;12.10;89.40;;;;;;5013082;28;20052;-84
2024/03/30 00:45:29;;;;;;;1.48;0.30;;;12.10;89.50;;;;;;5012994;28;20022;-84
2024/03/30 00:47:55;;;;;;;0.63;0.20;;;12.10;89.50;;;;;;5013179;28;20104;-85
2024/03/30 00:50:20;;;;;;;0.85;0.30;;;12.10;89.40;;;;;;5028258;28;20426;-85
2024/03/30 00:52:46;;;;;;;0.98;0.10;;;12.10;89.20;;;;;;5013191;28;20415;-85
2024/03/30 00:55:12;;;;;;;0.68;0.20;;;12.10;89.20;;;;;;5012779;28;20478;-85
2024/03/30 00:57:43;;;;;;;1.65;0.25;;;12.10;89.10;;;;;;5028301;28;20065;-85
2024/03/30 01:00:13;;;;;;;0.70;0.30;;;12.10;89.10;;;;;;5013014;28;20105;-85
2024/03/30 01:02:39;;;;;;;0.95;0.25;;;12.10;89.00;;;;;;5013097;28;20195;-85
2024/03/30 01:05:06;;;;;;;0.95;0.20;;;12.10;89.00;;;;;;5012917;28;20026;-85
2024/03/30 01:07:31;;;;;;;1.52;0.40;;;12.10;89.00;;;;;;5013220;28;20068;-83
2024/03/30 01:09:57;;;;;;;1.15;0.40;;;12.10;89.00;;;;;;5028182;28;20064;-85
2024/03/30 01:12:25;;;;;;;0.98;0.30;;;12.10;89.10;;;;;;5028195;28;20022;-84
2024/03/30 01:14:51;;;;;;;4.32;0.47;;;12.10;89.10;;;;;;5028234;28;20040;-85
2024/03/30 01:17:17;;;;;;;0.90;0.30;;;12.10;89.10;;;;;;5028040;28;20025;-84
2024/03/30 01:19:44;;;;;;;1.00;0.30;;;12.00;89.00;;;;;;5013221;28;20105;-85
2024/03/30 01:22:11;;;;;;;3.70;0.30;;;12.00;89.00;;;;;;5012928;28;20038;-83
2024/03/30 01:24:37;;;;;;;0.90;0.30;;;12.00;89.00;;;;;;5012999;28;20022;-84
2024/03/30 01:27:11;;;;;;;0.82;0.30;;;12.00;89.10;;;;;;5013592;28;20044;-84
2024/03/30 01:29:37;;;;;;;;;;;12.00;89.20;;;;;;5013461;28;20409;-84
2024/03/30 01:32:02;;;;;;;1.23;0.30;;;11.90;89.20;;;;;;5012806;28;20379;-84
2024/03/30 01:34:30;;;;;;;1.35;0.30;;;11.90;89.20;;;;;;5028051;28;20109;-84
2024/03/30 01:36:56;;;;;;;1.05;0.38;;;11.90;89.40;;;;;;5028152;28;20029;-84
2024/03/30 01:39:23;;;;;;;1.60;0.57;;;11.90;89.60;;;;;;5012434;28;20033;-85
2024/03/30 01:41:48;;;;;;;1.23;0.30;;;11.90;89.80;;;;;;5012799;28;20477;-83
2024/03/30 01:44:14;;;;;;;0.73;0.38;;;11.90;90.00;;;;;;5012668;28;20073;-85
2024/03/30 01:46:40;;;;;;;0.93;0.40;;;11.90;90.00;;;;;;5015926;28;20125;-84
2024/03/30 01:49:06;;;;;;;3.33;0.55;;;11.90;90.10;;;;;;5016532;28;20319;-84
2024/03/30 01:51:32;;;;;;;1.60;0.40;;;11.90;90.20;;;;;;5016523;28;20497;-84
2024/03/30 01:54:00;;;;;;;0.98;0.50;;;11.90;90.30;;;;;;5031792;28;20021;-83
2024/03/30 01:56:26;;;;;;;2.80;0.60;;;11.90;90.30;;;;;;5016271;28;20022;-83
2024/03/30 01:58:53;;;;;;;1.23;0.40;;;11.80;90.40;;;;;;5016262;28;20033;-83
2024/03/30 02:01:20;;;;;;;1.75;0.60;;;11.80;90.40;;;;;;5031521;28;20053;-85
2024/03/30 02:03:49;;;;;;;2.95;0.70;;;11.80;90.50;;;;;;5016259;28;20608;-84
2024/03/30 02:06:14;;;;;;;2.08;0.70;;;11.90;90.60;;;;;;5016291;28;20050;-84
2024/03/30 02:08:40;;;;;;;1.88;0.60;;;11.80;90.60;;;;;;5016218;28;20453;-84
2024/03/30 02:11:08;;;;;;;2.42;0.75;;;11.80;90.60;;;;;;5030739;28;20503;-85
2024/03/30 02:13:34;;;;;;;1.98;0.80;;;11.90;90.80;;;;;;5016009;28;20018;-83
2024/03/30 02:15:59;;;;;;;2.38;0.60;;;11.90;90.80;;;;;;5016140;28;20022;-83
2024/03/30 02:18:25;;;;;;;2.15;0.73;;;11.90;90.90;;;;;;5015709;28;20387;-83
2024/03/30 02:20:51;;;;;;;2.28;0.60;;;11.90;90.90;;;;;;5016135;28;20133;-83
2024/03/30 02:23:17;;;;;;;1.90;0.73;;;11.90;90.90;;;;;;5015789;28;20076;-84
2024/03/30 02:25:42;;;;;;;2.95;0.80;;;11.90;90.90;;;;;;5015909;28;20501;-83
2024/03/30 02:28:08;;;;;;;1.50;0.77;;;11.90;91.00;;;;;;5015953;28;20061;-84
2024/03/30 02:30:34;;;;;;;3.90;0.93;;;11.80;91.10;;;;;;5031012;28;20068;-84
2024/03/30 02:33:00;;;;;;;1.92;0.70;;;11.80;91.10;;;;;;5015216;28;20398;-84
2024/03/30 02:35:27;;;;;;;1.85;0.60;;;11.80;91.20;;;;;;5015704;28;20538;-84
2024/03/30 02:37:54;;;;;;;1.30;0.65;;;11.80;91.30;;;;;;5015694;28;20093;-84
2024/03/30 02:40:22;;;;;;;1.80;0.80;;;11.80;91.40;;;;;;5015634;28;20038;-83
2024/03/30 02:42:49;;;;;;;3.03;0.80;;;11.80;91.50;;;;;;5015295;28;20014;-83
2024/03/30 02:45:15;;;;;;;1.40;0.73;;;11.80;91.60;;;;;;5014998;28;20076;-83
2024/03/30 02:47:41;;;;;;;3.10;0.80;;;11.80;91.60;;;;;;5015010;28;20050;-83
2024/03/30 02:50:08;;;;;;;3.60;0.80;;;11.80;91.70;;;;;;5015359;28;20048;-84
2024/03/30 02:52:33;;;;;;;2.47;1.02;;;11.80;91.80;;;;;;5015209;28;20054;-84
2024/03/30 02:54:59;;;;;;;1.58;0.88;;;11.80;91.80;;;;;;5014984;28;20033;-84
2024/03/30 02:57:25;;;;;;;3.25;0.82;;;11.70;91.90;;;;;;5030436;28;20037;-82
2024/03/30 02:59:51;;;;;;;2.00;0.90;;;11.80;92.00;;;;;;5030355;28;20525;-82
2024/03/30 03:02:17;;;;;;;1.58;0.80;;;11.80;92.10;;;;;;5014936;28;20096;-81
2024/03/30 03:04:42;;;;;;;1.60;0.80;;;11.70;92.20;;;;;;5015153;28;20041;-82
2024/03/30 03:07:08;;;;;;;3.63;1.30;;;11.70;92.20;;;;;;5014822;28;20022;-82
2024/03/30 03:09:34;;;;;;;1.95;0.90;;;11.70;92.30;;;;;;5014960;28;20049;-83
2024/03/30 03:12:01;;;;;;;2.97;1.20;;;11.70;92.50;;;;;;5013555;28;20448;-83
2024/03/30 03:14:28;;;;;;;1.95;1.02;;;11.60;92.60;;;;;;5014836;28;20048;-82
2024/03/30 03:16:53;;;;;;;4.55;1.50;;;11.70;92.70;;;;;;5014672;28;20056;-82
2024/03/30 03:19:19;;;;;;;3.25;1.40;;;11.60;92.80;;;;;;5030523;28;20078;-82
2024/03/30 03:21:44;;;;;;;2.85;1.23;;;11.60;92.90;;;;;;5015085;28;20080;-82
2024/03/30 03:24:10;;;;;;;2.47;1.30;;;11.60;93.10;;;;;;5015088;28;20029;-82
2024/03/30 03:26:36;;;;;;;3.92;1.73;;;11.60;93.20;;;;;;5029837;28;20386;-83
2024/03/30 03:29:02;;;;;;;2.92;1.50;;;11.50;93.30;;;;;;5014196;28;20061;-84
2024/03/30 03:31:27;;;;;;;3.45;1.73;;;11.50;93.50;;;;;;5014230;28;20025;-83
2024/03/30 03:33:53;;;;;;;2.80;1.42;;;11.50;93.60;;;;;;5014622;28;20041;-83
2024/03/30 03:36:19;;;;;;;3.75;2.05;;;11.50;93.70;;;;;;5014466;28;20036;-83
2024/03/30 03:38:44;;;;;;;3.63;1.48;;;11.50;93.80;;;;;;5014535;28;20397;-83
2024/03/30 03:41:10;;;;;;;3.20;1.58;;;11.50;93.90;;;;;;5029480;28;20032;-83
2024/03/30 03:43:36;;;;;;;3.45;1.60;;;11.50;94.00;;;;;;5014490;28;20427;-83
2024/03/30 03:46:03;;;;;;;3.67;1.50;;;11.50;94.10;;;;;;5014190;28;20030;-83
2024/03/30 03:48:29;;;;;;;3.58;1.58;;;11.50;94.30;;;;;;5014310;28;20045;-83
2024/03/30 03:50:54;;;;;;;4.15;1.95;;;11.50;94.40;;;;;;5013922;28;20537;-84
2024/03/30 03:53:20;;;;;;;4.18;2.42;;;11.50;94.50;;;;;;5029586;28;20121;-83
2024/03/30 03:55:45;;;;;;;3.60;1.80;;;11.40;94.60;;;;;;5014561;28;20026;-84
2024/03/30 03:58:11;;;;;;;4.00;1.95;;;11.50;94.70;;;;;;5012956;28;20121;-84
2024/03/30 04:00:37;;;;;;;3.17;1.73;;;11.40;94.80;;;;;;5014009;28;20113;-84
2024/03/30 04:03:05;;;;;;;4.03;2.17;;;11.40;94.90;;;;;;5014052;28;20018;-83
2024/03/30 04:05:31;;;;;;;5.07;2.22;;;11.40;95.00;;;;;;5014209;28;20026;-86
2024/03/30 04:07:57;;;;;;;4.30;2.13;;;11.40;95.10;;;;;;5028417;28;20613;-83
2024/03/30 04:10:23;;;;;;;4.30;2.20;;;11.30;95.20;;;;;;5029134;28;20124;-83
2024/03/30 04:12:49;;;;;;;4.60;2.42;;;11.40;95.40;;;;;;5028738;28;20108;-83
2024/03/30 04:15:15;;;;;;;4.65;2.50;;;11.40;95.50;;;;;;5013549;28;20089;-85
2024/03/30 04:17:41;;;;;;;3.58;2.00;;;11.40;95.60;;;;;;5013848;28;20030;-84
2024/03/30 04:20:06;;;;;;;5.13;2.78;;;11.40;95.80;;;;;;5013733;28;20061;-83
2024/03/30 04:22:32;;;;;;;5.53;2.70;;;11.40;95.80;;;;;;5013674;28;20026;-83
2024/03/30 04:24:58;;;;;;;4.03;2.30;;;11.40;96.00;;;;;;5028948;28;20014;-83
2024/03/30 04:27:24;;;;;;;4.47;2.65;;;11.40;96.10;;;;;;5013412;28;20030;-83
2024/03/30 04:29:49;;;;;;;4.10;2.22;;;11.40;96.20;;;;;;5013488;28;20030;-83
2024/03/30 04:32:15;;;;;;;4.75;2.63;;;11.40;96.30;;;;;;5012812;28;20034;-83
2024/03/30 04:34:41;;;;;;;4.78;2.22;;;11.40;96.40;;;;;;5013374;28;20070;-83
2024/03/30 04:37:06;;;;;;;4.57;2.35;;;11.40;96.50;;;;;;5013438;28;20469;-83
2024/03/30 04:39:33;;;;;;;4.95;2.60;;;11.40;96.60;;;;;;5013239;28;20072;-83
2024/03/30 04:41:59;;;;;;;3.75;2.25;;;11.40;96.70;;;;;;5028651;28;20065;-81
2024/03/30 04:44:25;;;;;;;5.00;3.10;;;11.30;96.80;;;;;;5013706;28;20030;-84
2024/03/30 04:46:51;;;;;;;6.07;3.05;;;11.40;96.90;;;;;;5013311;28;20050;-83
2024/03/30 04:49:16;;;;;;;4.72;2.90;;;11.30;97.00;;;;;;5013923;28;20095;-83
2024/03/30 04:51:42;;;;;;;4.88;3.25;;;11.40;97.10;;;;;;5028641;28;20022;-83
2024/03/30 04:54:08;;;;;;;6.45;3.58;;;11.30;97.10;;;;;;5013360;28;20025;-83
2024/03/30 04:56:35;;;;;;;5.65;3.17;;;11.30;97.30;;;;;;5027983;28;20033;-83
2024/03/30 04:59:00;;;;;;;5.18;2.95;;;11.40;97.40;;;;;;5028089;28;20385;-83
2024/03/30 05:01:26;;;;;;;5.43;3.60;;;11.30;97.40;;;;;;5013243;28;20032;-83
2024/03/30 05:03:52;;;;;;;6.93;3.45;;;11.30;97.50;;;;;;5013108;28;20440;-84
2024/03/30 05:06:17;;;;;;;6.38;3.65;;;11.30;97.60;;;;;;5028326;28;20437;-83
2024/03/30 05:08:43;;;;;;;4.60;3.03;;;11.30;97.70;;;;;;5013482;28;20034;-84
2024/03/30 05:11:09;;;;;;;5.10;3.10;;;11.30;97.80;;;;;;5012400;28;20033;-83
2024/03/30 05:13:36;;;;;;;4.85;2.92;;;11.20;97.90;;;;;;5028302;28;20022;-83
2024/03/30 05:16:01;;;;;;;5.05;2.80;;;11.20;98.00;;;;;;5013234;28;20021;-84
2024/03/30 05:18:27;;;;;;;4.85;3.13;;;11.20;98.40;;;;;;5012835;28;20116;-84
2024/03/30 05:21:01;;;;;;;4.93;3.07;;;11.20;98.30;;;;;;5030306;28;20022;-84
2024/03/30 05:23:28;;;;;;;4.78;3.08;;;11.20;98.40;;;;;;5016683;28;20026;-83
2024/03/30 05:25:56;;;;;;;6.35;3.55;;;11.20;98.40;;;;;;5016664;28;20022;-83
2024/03/30 05:28:29;;;;;;;5.93;3.65;;;11.20;98.70;;;;;;5016971;28;20080;-84
2024/03/30 05:30:56;;;;;;;6.47;3.33;;;11.20;98.40;;;;;;5016710;28;20383;-84
2024/03/30 05:33:24;;;;;;;6.38;3.35;;;11.20;98.60;;;;;;5016820;28;20041;-84
2024/03/30 05:35:52;;;;;;;5.60;3.45;;;11.20;98.70;;;;;;5016675;28;20053;-84
2024/03/30 05:38:19;;;;;;;4.93;2.92;;;11.20;98.70;;;;;;5016753;28;20120;-84
2024/03/30 05:40:45;;;;;;;6.35;2.95;;;11.20;98.70;;;;;;5016621;28;20496;-84
2024/03/30 05:43:12;;;;;;;6.18;3.72;;;11.20;98.80;;;;;;5016434;28;20036;-84
2024/03/30 05:45:40;;;;;;;5.00;3.20;;;11.20;98.90;;;;;;5016933;28;20026;-83
2024/03/30 05:48:06;;;;;;;5.68;3.60;;;11.20;98.90;;;;;;5016796;28;20077;-84
2024/03/30 05:50:32;;;;;;;6.90;3.50;;;11.20;99.00;;;;;;5031598;28;20030;-84
2024/03/30 05:52:58;;;;;;;5.13;3.17;;;11.20;98.90;;;;;;5016255;28;20537;-83
2024/03/30 05:55:24;;;;;;;6.43;3.80;;;11.20;99.30;;;;;;5016581;28;20060;-83
2024/03/30 05:57:51;;;;;;;5.82;3.47;;;11.20;99.00;;;;;;5016369;28;20045;-85
2024/03/30 06:00:17;;;;;;;4.47;3.15;;;11.20;99.00;;;;;;5016503;28;20034;-83
2024/03/30 06:02:44;;;;;;;4.88;3.40;;;11.20;99.10;;;;;;5016240;28;20080;-84
2024/03/30 06:05:11;;;;;;;5.65;3.50;;;11.20;99.10;;;;;;5031525;28;20026;-85
2024/03/30 06:07:37;;;;;;;6.55;3.78;;;11.20;99.20;;;;;;5015988;28;20060;-83
2024/03/30 06:10:04;;;;;;;5.03;3.22;;;11.10;99.30;;;;;;5016192;28;20029;-83
2024/03/30 06:12:30;;;;;;;6.03;3.22;;;11.10;99.40;;;;;;5016234;28;20049;-83
2024/03/30 06:14:56;;;;;;;4.90;2.95;;;11.20;99.80;;;;;;5016092;28;20382;-83
2024/03/30 06:17:21;;;;;;;6.47;3.30;;;11.20;99.70;;;;;;5016184;28;20037;-84
2024/03/30 06:19:47;;;;;;;4.72;2.80;;;11.20;99.70;;;;;;5016050;28;20098;-84
2024/03/30 06:22:13;;;;;;;5.60;2.67;;;11.10;99.50;;;;;;5016140;28;20497;-83
2024/03/30 06:24:39;;;;;;;4.82;2.60;;;11.20;99.60;;;;;;5016231;28;20364;-84
2024/03/30 06:27:08;;;;;;;4.90;2.40;;;11.10;99.60;;;;;;5033111;28;20025;-84
2024/03/30 06:29:34;;;;;;;4.85;2.13;;;11.20;99.80;;;;;;5022701;28;20036;-84
2024/03/30 06:32:02;;;;;;;4.88;2.65;;;11.20;99.80;;;;;;5033436;28;20025;-85
2024/03/30 06:34:27;;;;;;;5.32;2.67;;;11.20;99.80;;;;;;5035228;28;20045;-85
2024/03/30 06:36:53;;;;;;;4.72;2.45;;;11.20;99.80;;;;;;5035224;28;20029;-84
2024/03/30 06:39:19;;;;;;;4.60;2.13;;;11.20;99.90;;;;;;5035206;28;20122;-85
2024/03/30 06:44:30;;;;;;;3.75;1.98;;;11.20;99.90;;;;;;5035849;28;20047;-85
2024/03/30 06:46:55;;;;;;;3.58;2.10;;;11.30;99.90;;;;;;5035240;28;20046;-84
2024/03/30 06:49:21;;;;;;;4.45;2.17;;;11.30;99.90;;;;;;5035545;28;20037;-84
2024/03/30 06:51:47;;;;;;;3.47;1.77;;;11.30;99.90;;;;;;5034964;28;20028;-84
2024/03/30 06:54:13;;;;;;;3.83;2.08;;;11.30;99.90;;;;;;5033643;28;20535;-84
2024/03/30 06:56:39;;;;;;;5.53;2.17;;;11.30;99.90;;;;;;5033966;28;20018;-84
2024/03/30 06:59:05;;;;;;;5.53;2.35;;;11.30;99.90;;;;;;5035259;28;20072;-84
2024/03/30 07:01:31;;;;;;;5.93;3.08;;;11.40;99.90;;;;;;5034329;28;20049;-85
2024/03/30 07:03:57;;;;;;;5.95;3.10;;;11.30;99.90;;;;;;5034732;28;20021;-82
2024/03/30 07:06:23;;;;;;;6.55;3.08;;;11.50;99.90;;;;;;5033323;28;20108;-82
2024/03/30 07:08:51;;;;;;;7.35;3.45;;;11.50;99.90;;;;;;5033482;28;20029;-82
2024/03/30 07:11:19;;;;;;;6.05;3.63;;;11.50;99.90;;;;;;5034674;28;20033;-80
2024/03/30 07:13:45;;;;;;;6.43;4.00;;;11.60;99.90;;;;;;5034371;28;20429;-82
2024/03/30 07:16:11;;;;;;;7.55;4.13;;;11.60;99.90;;;;;;5034626;28;20397;-82
2024/03/30 07:18:37;;;;;;;8.63;4.95;;;11.60;99.90;;;;;;5034401;28;20026;-82
2024/03/30 07:21:03;;;;;;;7.60;4.50;;;11.70;99.90;;;;;;5034474;28;20076;-82
2024/03/30 07:23:29;;;;;;;7.65;4.20;;;11.70;99.90;;;;;;5034518;28;20028;-82
2024/03/30 07:25:55;;;;;;;10.43;5.30;;;11.80;99.90;;;;;;5034486;28;20103;-82
2024/03/30 07:28:21;;;;;;;7.93;5.45;;;11.80;99.90;;;;;;5034543;28;20061;-82
2024/03/30 07:30:48;;;;;;;8.52;5.03;;;11.90;99.90;;;;;;5034682;28;20087;-81
2024/03/30 07:33:14;;;;;;;8.88;5.35;;;11.90;99.90;;;;;;5036094;28;20363;-83
2024/03/30 07:35:43;;;;;;;8.57;5.57;;;12.00;99.90;;;;;;5034009;28;20033;-82
2024/03/30 07:38:08;;;;;;;8.18;4.85;;;12.00;99.90;;;;;;5034134;28;20024;-82
2024/03/30 07:40:34;;;;;;;7.47;4.95;;;12.00;99.90;;;;;;5036302;28;20025;-83
2024/03/30 07:42:59;;;;;;;10.45;5.68;;;12.10;99.90;;;;;;5033348;28;20021;-83
2024/03/30 07:45:25;;;;;;;8.05;5.07;;;12.00;99.90;;;;;;5033918;28;20029;-83
2024/03/30 07:47:50;;;;;;;8.05;5.57;;;12.10;99.90;;;;;;5032723;28;20128;-83
2024/03/30 07:50:16;;;;;;;10.02;5.43;;;12.10;99.90;;;;;;5033924;28;20030;-83
2024/03/30 07:52:44;;;;;;;9.40;5.45;;;12.10;99.90;;;;;;5032630;28;20013;-82
2024/03/30 07:55:10;;;;;;;9.32;5.22;;;12.20;99.90;;;;;;5033720;28;20057;-82
2024/03/30 07:57:36;;;;;;;12.77;5.10;;;12.20;99.90;;;;;;5033847;28;20104;-82
2024/03/30 08:00:02;;;;;;;8.23;4.95;;;12.20;99.90;;;;;;5033653;28;20025;-80
2024/03/30 08:02:28;;;;;;;9.65;5.30;;;12.20;99.90;;;;;;5033738;28;20120;-83
2024/03/30 08:04:54;;;;;;;7.28;4.50;;;12.20;99.90;;;;;;5032310;28;20041;-82
2024/03/30 08:07:19;;;;;;;7.47;4.90;;;12.30;99.90;;;;;;5033730;28;20428;-83
2024/03/30 08:09:45;;;;;;;9.27;4.90;;;12.20;99.90;;;;;;5033530;28;20029;-82
2024/03/30 08:12:10;;;;;;;6.70;4.10;;;12.20;99.90;;;;;;5032196;28;20037;-82
2024/03/30 08:14:36;;;;;;;7.20;4.60;;;12.20;99.90;;;;;;5033556;28;20496;-82
2024/03/30 08:17:02;;;;;;;6.80;4.43;;;12.20;99.90;;;;;;5032086;28;20079;-82
2024/03/30 08:19:28;;;;;;;6.68;4.00;;;12.30;99.90;;;;;;5033536;28;20104;-81
2024/03/30 08:21:53;;;;;;;6.38;3.70;;;12.40;99.90;;;;;;5033426;28;20025;-81
2024/03/30 08:24:19;;;;;;;7.38;4.57;;;12.40;99.90;;;;;;5033720;28;20028;-81
2024/03/30 08:26:44;;;;;;;7.30;3.72;;;12.50;99.90;;;;;;5032008;28;20021;-82
2024/03/30 08:29:10;;;;;;;5.90;3.92;;;12.60;99.90;;;;;;5032128;28;20031;-81
2024/03/30 08:31:36;;;;;;;5.35;3.65;;;12.80;99.90;;;;;;5033070;28;20017;-81
2024/03/30 08:34:02;;;;;;;7.50;3.78;;;12.90;99.90;;;;;;5032986;28;20075;-82
2024/03/30 08:36:28;;;;;;;7.15;3.85;;;12.90;99.90;;;;;;5033265;28;20076;-82
2024/03/30 08:38:53;;;;;;;5.07;3.10;;;13.10;99.90;;;;;;5033139;28;20469;-83
2024/03/30 08:41:19;;;;;;;7.50;4.18;;;13.20;99.90;;;;;;5033504;28;20037;-83
2024/03/30 08:43:46;;;;;;;5.07;3.03;;;13.30;99.90;;;;;;5033452;28;20018;-82
2024/03/30 08:46:12;;;;;;;5.13;2.90;;;13.30;99.90;;;;;;5032746;28;20029;-81
2024/03/30 08:48:37;;;;;;;5.65;3.28;;;13.50;99.90;;;;;;5032275;28;20559;-82
2024/03/30 08:51:03;;;;;;;7.00;3.33;;;13.50;99.90;;;;;;5031793;28;20034;-82
2024/03/30 08:53:29;;;;;;;5.43;3.00;;;13.70;99.90;;;;;;5031739;28;20020;-83
2024/03/30 08:56:03;;;;;;;5.55;2.90;;;13.80;99.90;;;;;;5032730;28;20044;-82
2024/03/30 08:58:30;;;;;;;4.68;2.53;;;13.90;99.90;;;;;;5032135;28;20485;-80
2024/03/30 09:00:56;;;;;;;6.15;2.95;;;14.00;99.90;;;;;;5033018;28;20029;-82
2024/03/30 09:03:22;;;;;;;5.55;3.03;;;14.00;99.90;;;;;;5033330;28;20040;-82
2024/03/30 09:05:47;;;;;;;5.90;3.03;;;14.10;99.90;;;;;;5033693;28;20033;-81
2024/03/30 09:08:13;;;;;;;5.35;2.95;;;14.20;99.90;;;;;;5033974;28;20042;-82
2024/03/30 09:10:40;;;;;;;4.63;2.70;;;14.30;99.90;;;;;;5032698;28;20033;-82
2024/03/30 09:13:06;;;;;;;6.18;3.42;;;14.40;99.90;;;;;;5032461;28;20033;-82
2024/03/30 09:15:32;;;;;;;6.55;2.70;;;14.50;99.90;;;;;;5032021;28;20333;-82
2024/03/30 09:18:00;;;;;;;5.20;2.55;;;14.60;99.70;;;;;;5032993;28;20057;-82
2024/03/30 09:20:26;;;;;;;5.43;2.35;;;14.60;99.60;;;;;;5032638;28;20026;-81
2024/03/30 09:22:51;;;;;;;3.90;2.25;;;14.70;99.40;;;;;;5032093;28;20095;-81
2024/03/30 09:25:17;;;;;;;4.45;2.28;;;14.80;99.10;;;;;;5032272;28;20466;-80
2024/03/30 09:27:43;;;;;;;4.82;2.45;;;14.80;98.90;;;;;;5032649;28;20057;-81
2024/03/30 09:30:12;;;;;;;7.90;2.60;;;14.80;98.70;;;;;;5033223;28;20113;-82
2024/03/30 09:32:43;;;;;;;4.05;2.45;;;14.90;98.50;;;;;;5032728;28;20025;-81
2024/03/30 09:35:10;;;;;;;7.55;2.45;;;14.90;98.30;;;;;;5031982;28;20033;-82
2024/03/30 09:37:36;;;;;;;8.23;2.60;;;14.90;98.10;;;;;;5030746;28;20060;-81
2024/03/30 09:40:02;;;;;;;6.47;2.50;;;14.90;97.90;;;;;;5030834;28;20555;-82
2024/03/30 09:42:31;;;;;;;9.02;2.33;;;14.90;97.70;;;;;;5032527;28;20029;-82
2024/03/30 09:44:58;;;;;;;5.70;2.00;;;15.00;97.60;;;;;;5031908;28;20024;-83
2024/03/30 09:47:25;;;;;;;8.93;2.33;;;15.00;97.50;;;;;;5031671;28;20045;-81
2024/03/30 09:49:55;;;;;;;12.35;3.03;;;15.10;97.40;;;;;;5032105;28;20037;-82
2024/03/30 09:52:24;;;;;;;7.90;2.00;;;15.10;97.10;;;;;;5029607;28;20101;-82
2024/03/30 09:54:54;;;;;;;7.53;2.53;;;15.20;96.90;;;;;;5031920;28;20405;-81
2024/03/30 09:57:22;;;;;;;7.28;2.28;;;15.20;96.60;;;;;;5031136;28;20045;-81
2024/03/30 09:59:49;;;;;;;8.02;2.60;;;15.20;96.30;;;;;;5033164;28;20026;-81
2024/03/30 10:02:14;;;;;;;7.20;2.50;;;15.20;96.10;;;;;;5032659;28;20025;-82
2024/03/30 10:04:41;;;;;;;9.88;2.97;;;15.20;96.20;;;;;;5033078;28;20030;-81
2024/03/30 10:07:14;;;;;;;7.15;2.17;;;15.30;95.70;;;;;;5033538;28;20022;-82
2024/03/30 10:09:41;;;;;;;8.60;2.33;;;15.30;95.70;;;;;;5036694;28;20057;-82
2024/03/30 10:12:33;;;;;;;11.60;2.10;;;15.40;95.80;;;;;;5035277;28;20486;-82
2024/03/30 10:15:05;;;;;;;10.15;2.60;;;15.50;95.90;;;;;;5029805;28;20080;-82
2024/03/30 10:17:30;;;;;;;8.05;2.03;;;15.70;95.60;;;;;;5035425;28;20025;-83
2024/03/30 10:19:58;;;;;;;8.77;3.03;;;15.80;95.30;;;;;;5035008;28;20434;-82
2024/03/30 10:22:24;;;;;;;8.55;2.50;;;15.80;95.00;;;;;;5035110;28;20017;-83
2024/03/30 10:24:51;;;;;;;14.48;3.28;;;15.80;94.60;;;;;;5033881;28;20474;-82
2024/03/30 10:27:17;;;;;;;11.05;2.85;;;15.70;94.30;;;;;;5034992;28;20025;-82
2024/03/30 10:29:46;;;;;;;10.02;3.25;;;15.70;94.20;;;;;;5034955;28;20393;-82
2024/03/30 10:32:13;;;;;;;13.25;3.33;;;15.70;94.20;;;;;;5035020;28;20022;-82
2024/03/30 10:34:39;;;;;;;10.68;2.45;;;15.60;94.20;;;;;;5035482;28;20097;-82
2024/03/30 10:37:07;;;;;;;10.23;2.70;;;15.60;94.10;;;;;;5033859;28;20385;-81
2024/03/30 10:39:33;;;;;;;9.88;2.60;;;15.60;94.10;;;;;;5035412;28;20032;-82
2024/03/30 10:42:00;;;;;;;15.25;2.97;;;15.60;94.10;;;;;;5035457;28;20030;-80
2024/03/30 10:44:29;;;;;;;9.25;2.60;;;15.60;94.10;;;;;;5035434;28;20428;-82
2024/03/30 10:46:59;;;;;;;16.02;2.88;;;15.60;94.20;;;;;;5035754;28;20124;-81
2024/03/30 10:49:25;;;;;;;16.70;2.80;;;15.70;94.20;;;;;;5035158;28;20025;-82
2024/03/30 10:51:54;;;;;;;14.25;2.90;;;15.70;94.20;;;;;;5035295;28;20108;-84
2024/03/30 10:54:20;;;;;;;12.75;2.78;;;15.80;94.20;;;;;;5034283;28;20109;-84
2024/03/30 10:56:53;;;;;;;13.65;2.72;;;15.90;94.10;;;;;;5035167;28;20104;-85
2024/03/30 10:59:20;;;;;;;14.10;1.80;;;16.00;94.10;;;;;;5034548;28;20033;-85
2024/03/30 11:01:50;;;;;;;13.07;2.30;;;16.10;94.10;;;;;;5034979;28;20212;-84
2024/03/30 11:04:17;;;;;;;18.38;2.55;;;16.10;94.00;;;;;;5035140;28;20056;-85
2024/03/30 11:06:48;;;;;;;13.95;2.45;;;16.30;93.80;;;;;;5033712;28;20033;-86
2024/03/30 11:09:21;;;;;;;11.10;2.63;;;16.30;93.70;;;;;;5032405;28;20041;-85
2024/03/30 11:11:48;;;;;;;12.80;2.17;;;16.30;93.50;;;;;;5031777;28;20083;-86
2024/03/30 11:14:14;;;;;;;16.38;2.45;;;16.30;93.20;;;;;;5030718;28;20465;-85
2024/03/30 11:17:01;;;;;;;12.80;2.47;;;16.40;93.10;;;;;;5035016;28;20068;-85
2024/03/30 11:19:38;;;;;;;13.85;2.08;;;16.40;93.00;;;;;;5034263;28;20017;-85
2024/03/30 11:22:23;;;;;;;13.10;1.77;;;16.40;92.80;;;;;;5017120;28;20022;-85
2024/03/30 11:25:12;;;;;;;10.93;2.10;;;16.40;92.70;;;;;;5035385;28;20017;-85
2024/03/30 11:27:57;;;;;;;12.32;2.47;;;16.50;92.70;;;;;;5033479;28;20485;-85
2024/03/30 11:30:45;;;;;;;8.15;2.30;;;16.50;92.70;;;;;;5034717;28;20030;-85
2024/03/30 11:33:59;;;;;;;17.92;2.78;;;16.60;92.70;;;;;;5034235;28;20113;-86
2024/03/30 11:36:37;;;;;;;17.25;2.35;;;16.80;92.60;;;;;;5000257;28;20062;-86
2024/03/30 11:39:14;;;;;;;8.73;1.83;;;16.80;92.40;;;;;;5009624;28;20056;-85
2024/03/30 11:41:44;;;;;;;15.23;2.55;;;16.80;92.10;;;;;;5027209;28;20145;-86
2024/03/30 11:44:10;;;;;;;11.18;2.38;;;16.90;92.10;;;;;;5033567;28;20022;-85
2024/03/30 11:46:38;;;;;;;14.15;2.38;;;16.90;91.90;;;;;;5031943;28;20354;-86
2024/03/30 11:49:06;;;;;;;13.20;2.63;;;16.80;91.50;;;;;;5046737;28;20075;-86
2024/03/30 11:51:42;;;;;;;19.77;2.88;;;16.80;91.40;;;;;;5033557;28;20112;-84
2024/03/30 11:54:21;;;;;;;15.85;3.00;;;16.70;91.20;;;;;;5030518;28;20026;-85
2024/03/30 11:57:14;;;;;;;15.93;2.72;;;16.60;91.20;;;;;;5031507;28;20481;-86
2024/03/30 11:59:44;;;;;;;19.92;3.17;;;16.70;91.30;;;;;;5033386;28;20032;-85
2024/03/30 12:02:14;;;;;;;16.15;3.00;;;16.90;91.30;;;;;;5034578;28;20147;-86
2024/03/30 12:04:45;;;;;;;19.85;3.80;;;17.10;90.60;;;;;;5034564;28;20033;-86
2024/03/30 12:07:13;;;;;;;20.17;3.70;;;17.20;90.30;;;;;;5033706;28;20033;-84
2024/03/30 12:09:39;;;;;;;18.02;4.18;;;17.30;90.00;;;;;;5034591;28;20018;-85
2024/03/30 12:12:27;;;;;;;25.60;4.25;;;17.30;88.10;;;;;;5034071;28;20032;-86
2024/03/30 12:14:56;;;;;;;25.23;3.75;;;17.30;87.10;;;;;;5033449;28;20135;-85
2024/03/30 12:17:25;;;;;;;22.42;4.15;;;17.30;86.30;;;;;;5032784;28;20025;-85
2024/03/30 12:19:53;;;;;;;20.90;3.40;;;17.30;85.30;;;;;;5033561;28;20536;-86
2024/03/30 12:22:22;;;;;;;21.58;3.65;;;17.30;84.20;;;;;;5033422;28;20017;-85
2024/03/30 12:24:51;;;;;;;24.25;3.90;;;17.30;84.50;;;;;;5032265;28;20025;-85
2024/03/30 12:27:19;;;;;;;19.52;3.42;;;17.40;84.80;;;;;;5034239;28;20048;-85
2024/03/30 12:29:45;;;;;;;19.48;3.35;;;17.40;84.40;;;;;;5032245;28;20083;-85
2024/03/30 12:32:11;;;;;;;22.75;3.78;;;17.50;83.50;;;;;;5032978;28;20025;-85
2024/03/30 12:34:37;;;;;;;20.58;3.58;;;17.40;82.60;;;;;;5035019;28;20041;-85
2024/03/30 12:37:03;;;;;;;25.25;3.63;;;17.30;82.60;;;;;;5034166;28;20029;-85
2024/03/30 12:39:29;;;;;;;21.65;3.50;;;17.30;81.30;;;;;;5033802;28;20040;-86
2024/03/30 12:41:55;;;;;;;18.85;2.67;;;17.20;80.60;;;;;;5033043;28;20025;-86
2024/03/30 12:44:20;;;;;;;18.77;3.25;;;17.10;79.40;;;;;;5033355;28;20583;-85
2024/03/30 12:46:47;;;;;;;21.65;3.30;;;17.00;80.00;;;;;;5031759;28;20049;-85
2024/03/30 12:49:13;;;;;;;20.92;2.30;;;17.00;79.60;;;;;;5032038;28;20025;-85